Time;durP1;ratioP1;P1;durP2;ratioP2;P2;SDS_P1;SDS_P2;PMS_P1;PMS_P2;Temp;Humidity;BMP_temperature;BMP_pressure;BME280_temperature;BME280_humidity;BME280_pressure;Samples;Min_cycle;Max_cycle;Signal;HPM_P1;HPM_P2
2023/05/11 00:00:51;;;;;;;9.98;8.07;;;;;;;13.10;100.00;100701.91;4915335;28;20123;-79
2023/05/11 00:03:18;;;;;;;9.77;6.57;;;;;;;12.96;100.00;100700.81;4966674;28;20057;-79
2023/05/11 00:05:47;;;;;;;6.80;5.80;;;;;;;12.80;100.00;100692.97;4975412;28;20060;-78
2023/05/11 00:08:15;;;;;;;7.45;5.97;;;;;;;12.70;100.00;100695.81;4918436;28;20131;-79
2023/05/11 00:10:41;;;;;;;5.65;4.70;;;;;;;12.51;100.00;100685.69;4916419;28;20470;-78
2023/05/11 00:13:08;;;;;;;4.18;3.60;;;;;;;12.25;100.00;100676.22;4915361;28;20052;-78
2023/05/11 00:15:35;;;;;;;6.35;3.35;;;;;;;12.14;100.00;100676.56;4915191;28;20052;-78
2023/05/11 00:18:03;;;;;;;5.75;3.53;;;;;;;11.87;100.00;100687.34;4916276;28;20658;-77
2023/05/11 00:20:29;;;;;;;6.97;3.58;;;;;;;11.70;100.00;100681.25;4916487;28;20134;-78
2023/05/11 00:22:56;;;;;;;6.95;3.30;;;;;;;11.53;100.00;100664.69;4918035;28;20048;-78
2023/05/11 00:25:22;;;;;;;3.95;2.72;;;;;;;11.39;100.00;100674.97;4918834;28;20126;-78
2023/05/11 00:27:49;;;;;;;3.45;2.05;;;;;;;11.23;100.00;100673.97;4909212;28;20149;-78
2023/05/11 00:30:16;;;;;;;3.22;1.58;;;;;;;11.16;100.00;100678.19;4914579;28;20048;-78
2023/05/11 00:32:43;;;;;;;3.53;2.60;;;;;;;11.27;100.00;100687.56;4916070;28;20590;-77
2023/05/11 00:35:12;;;;;;;2.38;1.90;;;;;;;11.26;100.00;100684.13;4915917;28;20088;-76
2023/05/11 00:37:39;;;;;;;2.05;1.67;;;;;;;11.26;100.00;100678.06;4916495;28;20131;-77
2023/05/11 00:40:07;;;;;;;3.30;2.42;;;;;;;11.27;100.00;100679.69;4917180;28;20106;-78
2023/05/11 00:42:34;;;;;;;3.75;2.75;;;;;;;11.35;100.00;100674.47;4957332;28;20052;-78
2023/05/11 00:45:00;;;;;;;8.13;3.83;;;;;;;11.35;100.00;100677.09;4918734;28;20082;-78
2023/05/11 00:47:28;;;;;;;10.82;4.97;;;;;;;11.43;100.00;100676.28;4918215;28;20130;-78
2023/05/11 00:49:55;;;;;;;10.90;5.97;;;;;;;11.51;100.00;100687.59;4918759;28;20103;-79
2023/05/11 00:52:23;;;;;;;12.73;8.93;;;;;;;11.56;100.00;100685.31;4915236;28;20060;-77
2023/05/11 00:54:50;;;;;;;13.13;9.60;;;;;;;11.60;100.00;100673.53;4918105;28;20083;-78
2023/05/11 00:57:17;;;;;;;14.32;9.73;;;;;;;11.73;100.00;100690.59;4914788;28;20055;-78
2023/05/11 00:59:43;;;;;;;14.57;10.02;;;;;;;11.74;100.00;100687.81;4915894;28;20428;-76
2023/05/11 01:02:10;;;;;;;14.85;9.88;;;;;;;11.81;100.00;100690.66;4915907;28;20107;-78
2023/05/11 01:04:37;;;;;;;15.05;9.85;;;;;;;11.87;100.00;100697.84;4917587;28;20123;-78
2023/05/11 01:07:10;;;;;;;12.55;9.70;;;;;;;11.87;100.00;100689.97;4917620;28;20486;-78
2023/05/11 01:09:48;;;;;;;14.95;10.80;;;;;;;11.87;100.00;100696.03;4917477;28;20052;-79
2023/05/11 01:12:23;;;;;;;15.32;11.57;;;;;;;11.86;100.00;100686.53;4909999;28;20156;-77
2023/05/11 01:14:58;;;;;;;15.15;11.90;;;;;;;11.83;100.00;100696.53;4917502;28;20068;-78
2023/05/11 01:17:36;;;;;;;17.42;12.45;;;;;;;11.82;100.00;100694.88;4917340;28;20144;-78
2023/05/11 01:20:07;;;;;;;17.40;12.95;;;;;;;11.79;100.00;100690.00;4916047;28;20147;-78
2023/05/11 01:22:55;;;;;;;18.42;12.80;;;;;;;11.77;100.00;100698.03;4955786;28;20464;-78
2023/05/11 01:25:39;;;;;;;17.90;13.38;;;;;;;11.85;100.00;100698.00;4913896;28;20108;-78
2023/05/11 01:28:23;;;;;;;20.13;14.02;;;;;;;11.87;100.00;100703.09;4913803;28;20140;-78
2023/05/11 01:30:54;;;;;;;18.23;13.63;;;;;;;11.88;100.00;100699.47;4921385;28;20056;-79
2023/05/11 01:33:27;;;;;;;20.92;14.23;;;;;;;11.88;100.00;100699.47;4921703;28;20052;-79
2023/05/11 01:36:01;;;;;;;20.05;13.85;;;;;;;11.91;100.00;100704.41;4917957;28;20098;-78
2023/05/11 01:38:30;;;;;;;22.17;15.45;;;;;;;11.90;100.00;100703.59;4960113;28;20049;-78
2023/05/11 01:40:58;;;;;;;20.70;14.32;;;;;;;11.88;100.00;100705.53;4906396;28;20059;-77
2023/05/11 01:43:27;;;;;;;21.98;15.50;;;;;;;11.87;100.00;100698.66;4914402;28;20120;-78
2023/05/11 01:46:00;;;;;;;23.75;15.73;;;;;;;11.91;100.00;100701.78;4909955;28;20135;-77
2023/05/11 01:48:30;;;;;;;20.83;15.40;;;;;;;11.90;100.00;100708.00;4910383;28;20131;-77
2023/05/11 01:51:01;;;;;;;20.85;15.73;;;;;;;11.88;100.00;100709.97;4911703;28;20503;-77
2023/05/11 01:53:31;;;;;;;21.73;16.08;;;;;;;11.90;100.00;100702.75;4914257;28;20533;-78
2023/05/11 01:56:00;;;;;;;21.48;15.85;;;;;;;11.92;100.00;100713.91;4912850;28;20131;-77
2023/05/11 01:58:28;;;;;;;23.08;16.33;;;;;;;11.95;100.00;100716.22;4914010;28;20114;-78
2023/05/11 02:00:59;;;;;;;24.45;16.13;;;;;;;11.89;100.00;100709.81;4912676;28;20130;-77
2023/05/11 02:03:27;;;;;;;22.17;16.40;;;;;;;11.93;100.00;100715.56;4916051;28;20365;-77
2023/05/11 02:05:55;;;;;;;24.00;15.35;;;;;;;11.92;100.00;100724.41;4911971;28;20126;-77
2023/05/11 02:08:23;;;;;;;23.63;16.67;;;;;;;11.91;100.00;100728.00;4914677;28;20044;-76
2023/05/11 02:10:52;;;;;;;25.10;16.45;;;;;;;11.88;100.00;100731.75;4909778;28;20060;-77
2023/05/11 02:13:19;;;;;;;26.42;16.70;;;;;;;11.85;100.00;100736.50;4915021;28;20048;-78
2023/05/11 02:15:48;;;;;;;22.75;16.65;;;;;;;11.78;100.00;100746.03;4913011;28;20116;-78
2023/05/11 02:18:18;;;;;;;24.85;16.67;;;;;;;11.76;100.00;100742.72;4915130;28;20131;-78
2023/05/11 02:20:46;;;;;;;24.33;17.27;;;;;;;11.70;100.00;100748.59;4914665;28;20506;-78
2023/05/11 02:23:14;;;;;;;28.75;17.92;;;;;;;11.73;100.00;100748.28;4915095;28;20753;-78
2023/05/11 02:25:41;;;;;;;26.85;18.17;;;;;;;11.77;100.00;100745.22;4910709;28;20053;-78
2023/05/11 02:28:08;;;;;;;28.27;19.02;;;;;;;11.76;100.00;100740.09;4908895;28;20106;-78
2023/05/11 02:30:40;;;;;;;28.48;18.02;;;;;;;11.71;100.00;100747.63;4914199;28;20060;-77
2023/05/11 02:33:09;;;;;;;28.52;18.60;;;;;;;11.58;100.00;100741.03;4916132;28;20086;-79
2023/05/11 02:35:42;;;;;;;26.83;18.55;;;;;;;11.55;100.00;100751.81;4929999;28;20048;-79
2023/05/11 02:38:11;;;;;;;26.58;18.27;;;;;;;11.46;100.00;100742.28;4913983;29;20080;-77
2023/05/11 02:40:42;;;;;;;26.75;18.75;;;;;;;11.45;100.00;100748.50;4911541;28;20135;-77
2023/05/11 02:43:12;;;;;;;32.85;21.20;;;;;;;11.49;100.00;100756.88;4913777;28;20063;-77
2023/05/11 02:45:43;;;;;;;34.35;21.58;;;;;;;11.47;100.00;100754.41;4909597;28;20530;-79
2023/05/11 02:48:12;;;;;;;39.58;22.27;;;;;;;11.51;100.00;100760.97;4913473;28;20427;-77
2023/05/11 02:50:43;;;;;;;33.15;22.20;;;;;;;11.55;100.00;100764.94;4914604;28;20102;-77
2023/05/11 02:53:14;;;;;;;33.25;21.17;;;;;;;11.59;100.00;100763.63;4913572;28;20075;-77
2023/05/11 02:55:41;;;;;;;37.53;21.75;;;;;;;11.60;100.00;100767.06;4914966;28;20056;-78
2023/05/11 02:58:08;;;;;;;32.63;20.20;;;;;;;11.62;100.00;100767.75;4914600;28;20422;-77
2023/05/11 03:00:35;;;;;;;31.20;19.63;;;;;;;11.46;100.00;100763.25;4913349;28;20068;-77
2023/05/11 03:03:02;;;;;;;31.88;19.77;;;;;;;11.50;100.00;100764.59;4913254;28;20131;-76
2023/05/11 03:05:29;;;;;;;32.47;19.73;;;;;;;11.48;100.00;100756.06;4915361;28;20063;-78
2023/05/11 03:07:59;;;;;;;27.00;18.23;;;;;;;11.44;100.00;100751.28;4916089;28;20056;-78
2023/05/11 03:10:27;;;;;;;31.65;19.55;;;;;;;11.41;100.00;100746.38;4913549;28;20056;-79
2023/05/11 03:12:54;;;;;;;29.23;19.35;;;;;;;11.36;100.00;100746.84;4910440;28;20135;-78
2023/05/11 03:15:21;;;;;;;29.90;19.00;;;;;;;11.30;100.00;100742.25;4914299;28;20502;-78
2023/05/11 03:17:49;;;;;;;30.10;20.70;;;;;;;11.22;100.00;100735.19;4914410;28;20068;-77
2023/05/11 03:20:17;;;;;;;29.88;20.05;;;;;;;11.17;100.00;100744.47;4913698;28;20147;-77
2023/05/11 03:22:45;;;;;;;35.08;20.58;;;;;;;11.13;100.00;100743.16;4913269;28;20127;-77
2023/05/11 03:25:15;;;;;;;36.78;22.13;;;;;;;11.09;100.00;100734.78;4912783;28;20056;-77
2023/05/11 03:27:43;;;;;;;33.75;20.42;;;;;;;11.09;100.00;100745.25;4909414;28;20056;-77
2023/05/11 03:30:13;;;;;;;32.80;20.63;;;;;;;11.16;100.00;100745.47;4912395;28;20052;-77
2023/05/11 03:32:39;;;;;;;32.78;21.63;;;;;;;11.15;100.00;100746.44;4914990;28;20102;-78
2023/05/11 03:35:08;;;;;;;32.90;20.58;;;;;;;11.14;100.00;100757.91;4911921;28;20164;-77
2023/05/11 03:37:37;;;;;;;32.15;19.88;;;;;;;11.17;100.00;100753.16;4913830;28;20055;-76
2023/05/11 03:40:05;;;;;;;32.08;20.15;;;;;;;11.24;100.00;100753.38;4915404;28;20139;-79
2023/05/11 03:42:35;;;;;;;32.55;20.80;;;;;;;11.24;100.00;100753.38;4917209;28;20135;-77
2023/05/11 03:45:03;;;;;;;28.80;19.98;;;;;;;11.22;100.00;100744.84;4916505;28;20052;-76
2023/05/11 03:47:32;;;;;;;33.47;20.02;;;;;;;11.19;100.00;100753.00;4913121;28;20095;-76
2023/05/11 03:50:00;;;;;;;30.35;19.02;;;;;;;11.19;100.00;100755.63;4914699;28;20060;-75
2023/05/11 03:52:28;;;;;;;27.98;19.08;;;;;;;11.15;100.00;100757.72;4913259;28;20490;-77
2023/05/11 03:54:55;;;;;;;30.98;19.33;;;;;;;11.17;100.00;100742.69;4918348;28;20072;-77
2023/05/11 03:57:24;;;;;;;28.60;18.63;;;;;;;11.25;100.00;100750.59;4915390;28;20570;-79
2023/05/11 03:59:52;;;;;;;29.17;18.25;;;;;;;11.28;100.00;100750.28;4915863;28;20073;-76
2023/05/11 04:02:19;;;;;;;30.45;19.00;;;;;;;11.34;100.00;100748.00;4914213;28;20555;-76
2023/05/11 04:04:45;;;;;;;26.60;17.70;;;;;;;11.40;100.00;100750.78;4917453;28;20059;-78
2023/05/11 04:07:12;;;;;;;28.45;18.10;;;;;;;11.46;100.00;100747.53;4917613;28;20052;-77
2023/05/11 04:09:39;;;;;;;26.98;17.80;;;;;;;11.47;100.00;100749.19;4909519;28;20056;-77
2023/05/11 04:12:06;;;;;;;27.42;17.48;;;;;;;11.49;100.00;100747.22;4906944;28;20127;-78
2023/05/11 04:14:32;;;;;;;27.15;17.48;;;;;;;11.49;100.00;100752.47;4909855;28;20131;-78
2023/05/11 04:17:01;;;;;;;27.45;16.83;;;;;;;11.55;100.00;100751.00;4914504;28;20143;-76
2023/05/11 04:19:28;;;;;;;24.73;16.00;;;;;;;11.62;100.00;100741.53;4915561;28;20056;-78
2023/05/11 04:21:54;;;;;;;23.45;16.75;;;;;;;11.66;100.00;100760.38;4916038;28;20070;-78
2023/05/11 04:24:21;;;;;;;21.13;16.58;;;;;;;11.76;100.00;100747.97;4918706;28;20385;-78
2023/05/11 04:26:47;;;;;;;24.88;16.58;;;;;;;11.85;100.00;100752.25;4913888;28;20080;-78
2023/05/11 04:29:14;;;;;;;26.70;15.55;;;;;;;11.93;100.00;100757.50;4917065;28;20143;-78
2023/05/11 04:31:40;;;;;;;23.40;15.48;;;;;;;11.94;100.00;100756.53;4915027;28;20079;-77
2023/05/11 04:34:08;;;;;;;19.52;14.43;;;;;;;11.94;100.00;100759.16;4914607;28;20139;-77
2023/05/11 04:36:35;;;;;;;21.50;14.52;;;;;;;12.01;100.00;100756.69;4917848;28;20126;-77
2023/05/11 04:39:03;;;;;;;22.13;14.00;;;;;;;12.09;100.00;100754.91;4917003;28;20136;-78
2023/05/11 04:41:30;;;;;;;23.98;15.45;;;;;;;12.08;100.00;100753.28;4913779;28;20135;-78
2023/05/11 04:43:56;;;;;;;21.55;14.85;;;;;;;12.12;100.00;100754.59;4911637;28;20048;-78
2023/05/11 04:46:23;;;;;;;22.85;15.13;;;;;;;12.18;100.00;100759.19;4912730;28;20080;-78
2023/05/11 04:48:50;;;;;;;20.58;14.38;;;;;;;12.26;100.00;100761.00;4918503;28;20087;-78
2023/05/11 04:51:18;;;;;;;20.25;15.27;;;;;;;12.33;100.00;100761.13;4911624;28;20127;-78
2023/05/11 04:53:44;;;;;;;20.52;14.98;;;;;;;12.29;100.00;100758.84;4911996;28;20139;-78
2023/05/11 04:56:11;;;;;;;23.75;15.77;;;;;;;12.37;100.00;100763.28;4915240;28;20131;-79
2023/05/11 04:58:38;;;;;;;24.08;17.00;;;;;;;12.50;100.00;100757.53;4919280;28;20059;-78
2023/05/11 05:01:05;;;;;;;23.60;16.70;;;;;;;12.41;100.00;100759.34;4919933;28;20119;-78
2023/05/11 05:03:31;;;;;;;23.13;17.50;;;;;;;12.58;100.00;100760.16;4920060;28;20132;-78
2023/05/11 05:05:58;;;;;;;27.75;18.13;;;;;;;12.56;100.00;100762.13;4919877;28;20469;-79
2023/05/11 05:08:26;;;;;;;25.80;17.95;;;;;;;12.65;100.00;100765.56;4919070;28;20064;-79
2023/05/11 05:10:52;;;;;;;33.60;20.63;;;;;;;12.62;100.00;100766.72;4911788;28;20487;-78
2023/05/11 05:13:19;;;;;;;33.72;21.90;;;;;;;12.66;100.00;100778.53;4911775;28;20083;-79
2023/05/11 05:15:46;;;;;;;39.45;26.58;;;;;;;12.64;100.00;100772.63;4918108;28;20486;-78
2023/05/11 05:18:12;;;;;;;39.03;26.30;;;;;;;12.75;100.00;100772.28;4912067;28;20126;-78
2023/05/11 05:20:39;;;;;;;49.08;28.45;;;;;;;12.69;100.00;100772.94;4918508;28;20139;-78
2023/05/11 05:23:06;;;;;;;47.72;29.88;;;;;;;12.69;100.00;100777.38;4917968;28;20538;-78
2023/05/11 05:25:34;;;;;;;42.67;27.30;;;;;;;12.75;100.00;100772.28;4911360;28;20131;-78
2023/05/11 05:28:00;;;;;;;41.25;27.27;;;;;;;12.82;100.00;100780.28;4908439;28;20486;-77
2023/05/11 05:30:27;;;;;;;42.53;27.17;;;;;;;12.72;100.00;100771.78;4959534;28;20136;-78
2023/05/11 05:32:55;;;;;;;42.08;27.25;;;;;;;12.64;100.00;100785.75;4918313;28;20151;-79
2023/05/11 05:35:22;;;;;;;41.17;25.85;;;;;;;12.83;100.00;100777.50;4912289;28;20053;-79
2023/05/11 05:37:48;;;;;;;39.03;26.00;;;;;;;12.74;100.00;100785.56;4929212;28;20116;-79
2023/05/11 05:40:15;;;;;;;40.45;26.50;;;;;;;12.80;100.00;100784.88;4945023;28;20495;-80
2023/05/11 05:42:43;;;;;;;44.88;26.45;;;;;;;12.88;100.00;100788.31;4918164;28;20079;-78
2023/05/11 05:45:11;;;;;;;41.70;25.50;;;;;;;12.79;100.00;100781.44;4914338;28;20055;-79
2023/05/11 05:47:38;;;;;;;40.78;25.98;;;;;;;12.71;100.00;100794.59;4916321;28;20052;-79
2023/05/11 05:50:05;;;;;;;40.88;26.30;;;;;;;12.71;100.00;100784.09;4918211;28;20144;-79
2023/05/11 05:52:32;;;;;;;34.17;24.85;;;;;;;12.75;100.00;100797.72;4919083;28;20688;-79
2023/05/11 05:54:59;;;;;;;37.90;25.05;;;;;;;12.73;100.00;100797.88;4907327;28;20083;-79
2023/05/11 05:57:25;;;;;;;37.78;25.45;;;;;;;12.65;100.00;100792.63;4919869;28;20041;-81
2023/05/11 05:59:53;;;;;;;35.38;23.67;;;;;;;12.71;100.00;100791.97;4919400;28;20091;-79
2023/05/11 06:02:20;;;;;;;36.88;24.67;;;;;;;12.76;100.00;100794.13;4919080;28;20136;-79
2023/05/11 06:04:46;;;;;;;36.38;24.52;;;;;;;12.78;100.00;100795.56;4913267;28;20052;-80
2023/05/11 06:07:13;;;;;;;38.92;25.60;;;;;;;12.93;100.00;100795.69;4917829;28;20131;-80
2023/05/11 06:09:40;;;;;;;36.90;25.60;;;;;;;13.05;100.00;100804.06;4913960;28;20127;-80
2023/05/11 06:12:08;;;;;;;36.25;24.35;;;;;;;13.09;100.00;100805.38;4917334;28;20120;-80
2023/05/11 06:14:35;;;;;;;36.40;24.48;;;;;;;13.12;100.00;100797.97;4916960;28;20691;-83
2023/05/11 06:17:03;;;;;;;33.00;23.05;;;;;;;13.17;100.00;100813.25;4919021;28;20083;-79
2023/05/11 06:19:30;;;;;;;40.85;23.63;;;;;;;13.19;100.00;100808.66;4917515;28;20112;-79
2023/05/11 06:21:56;;;;;;;33.88;22.30;;;;;;;13.32;100.00;100806.31;4915119;28;20139;-80
2023/05/11 06:24:23;;;;;;;33.20;23.33;;;;;;;13.35;100.00;100805.97;4939879;28;20046;-79
2023/05/11 06:26:49;;;;;;;38.03;23.77;;;;;;;13.38;100.00;100808.25;4918024;28;20578;-80
2023/05/11 06:29:18;;;;;;;37.33;23.05;;;;;;;13.49;100.00;100802.63;4921498;28;20044;-80
2023/05/11 06:31:45;;;;;;;36.85;24.92;;;;;;;13.44;100.00;100804.13;4916518;28;20095;-79
2023/05/11 06:34:13;;;;;;;37.35;26.60;;;;;;;13.25;100.00;100810.59;4916585;28;20060;-80
2023/05/11 06:36:40;;;;;;;36.75;26.58;;;;;;;13.17;100.00;100811.47;4917744;28;20086;-80
2023/05/11 06:39:06;;;;;;;37.15;25.30;;;;;;;13.16;100.00;100806.38;4917986;28;20067;-79
2023/05/11 06:41:33;;;;;;;35.00;25.38;;;;;;;13.15;100.00;100807.31;4916672;28;20079;-79
2023/05/11 06:43:59;;;;;;;35.83;25.63;;;;;;;13.10;100.00;100807.00;4912597;28;20124;-78
2023/05/11 06:46:26;;;;;;;34.45;25.27;;;;;;;13.20;100.00;100807.69;4911668;28;20130;-79
2023/05/11 06:48:53;;;;;;;34.42;25.23;;;;;;;13.31;100.00;100804.66;4915520;28;20111;-79
2023/05/11 06:51:21;;;;;;;39.78;24.67;;;;;;;13.36;100.00;100804.16;4915448;28;20113;-78
2023/05/11 06:53:48;;;;;;;38.15;24.98;;;;;;;13.42;100.00;100806.09;4910943;28;20102;-79
2023/05/11 06:56:15;;;;;;;39.92;25.52;;;;;;;13.17;100.00;100813.25;4913943;28;20235;-80
2023/05/11 06:58:41;;;;;;;36.00;26.23;;;;;;;13.26;100.00;100809.59;4915731;28;20052;-79
2023/05/11 07:01:08;;;;;;;36.00;26.20;;;;;;;13.51;100.00;100816.44;4915011;28;20054;-79
2023/05/11 07:03:35;;;;;;;34.45;24.38;;;;;;;13.80;100.00;100814.97;4913682;28;20088;-78
2023/05/11 07:06:02;;;;;;;37.70;24.88;;;;;;;13.91;100.00;100818.03;4914688;28;20139;-78
2023/05/11 07:08:30;;;;;;;33.65;24.38;;;;;;;14.02;100.00;100816.81;4916047;28;20147;-78
2023/05/11 07:10:57;;;;;;;33.92;24.02;;;;;;;14.15;100.00;100808.38;4904071;28;20048;-78
2023/05/11 07:13:23;;;;;;;35.60;24.85;;;;;;;14.20;100.00;100817.34;4915629;28;20056;-81
2023/05/11 07:15:50;;;;;;;30.42;23.05;;;;;;;14.27;99.60;100802.50;4919012;28;20127;-79
2023/05/11 07:18:16;;;;;;;31.75;22.80;;;;;;;14.40;99.37;100801.09;4917752;28;20115;-77
2023/05/11 07:20:45;;;;;;;29.55;23.23;;;;;;;14.38;98.97;100805.72;4917088;28;20056;-78
2023/05/11 07:23:12;;;;;;;29.35;21.52;;;;;;;14.57;98.47;100800.00;4915758;28;20093;-78
2023/05/11 07:25:40;;;;;;;25.92;20.15;;;;;;;14.80;97.78;100802.59;4912992;28;20080;-77
2023/05/11 07:28:06;;;;;;;28.10;21.05;;;;;;;14.44;96.92;100797.97;4909650;28;20050;-78
2023/05/11 07:30:33;;;;;;;30.38;20.20;;;;;;;14.48;96.81;100801.06;4916350;28;20059;-77
2023/05/11 07:32:59;;;;;;;29.02;21.35;;;;;;;14.64;96.35;100798.31;4915698;28;20152;-77
2023/05/11 07:35:26;;;;;;;27.27;20.50;;;;;;;14.81;95.27;100799.78;4912124;28;20058;-76
2023/05/11 07:37:53;;;;;;;26.55;20.08;;;;;;;15.56;94.03;100793.50;4916797;28;20485;-80
2023/05/11 07:40:19;;;;;;;24.38;18.90;;;;;;;16.00;90.84;100784.69;4913308;28;20126;-78
2023/05/11 07:42:47;;;;;;;26.42;19.33;;;;;;;16.48;89.95;100798.94;4915603;28;20484;-78
2023/05/11 07:45:14;;;;;;;24.45;17.50;;;;;;;16.80;86.70;100782.56;4915128;28;20062;-77
2023/05/11 07:47:40;;;;;;;21.52;17.60;;;;;;;17.06;86.22;100787.19;4916021;28;20551;-78
2023/05/11 07:50:08;;;;;;;21.17;16.65;;;;;;;16.67;85.37;100784.28;4917647;28;20108;-78
2023/05/11 07:52:35;;;;;;;21.05;16.38;;;;;;;16.76;86.38;100799.81;4908935;28;20135;-77
2023/05/11 07:55:01;;;;;;;20.63;15.98;;;;;;;16.94;83.47;100793.22;4917225;28;20088;-78
2023/05/11 07:57:28;;;;;;;16.10;13.93;;;;;;;17.25;82.20;100788.31;4955618;28;20133;-77
2023/05/11 07:59:56;;;;;;;19.40;15.32;;;;;;;17.21;81.90;100779.13;4910778;28;20056;-78
2023/05/11 08:02:23;;;;;;;21.77;15.45;;;;;;;17.57;81.15;100794.75;4913133;28;20049;-79
2023/05/11 08:04:49;;;;;;;19.90;14.18;;;;;;;18.30;79.82;100784.38;4909921;28;20481;-78
2023/05/11 08:07:16;;;;;;;16.17;13.23;;;;;;;19.55;75.85;100778.91;4915583;28;20056;-78
2023/05/11 08:09:43;;;;;;;17.20;13.18;;;;;;;19.65;74.31;100766.00;4902763;28;20390;-79
2023/05/11 08:12:10;;;;;;;16.63;13.32;;;;;;;19.50;76.17;100784.81;4910437;28;20127;-78
2023/05/11 08:14:37;;;;;;;17.40;14.13;;;;;;;18.83;74.75;100764.81;4916603;28;20091;-78
2023/05/11 08:17:05;;;;;;;16.75;12.90;;;;;;;19.44;73.99;100772.38;4913028;28;20048;-77
2023/05/11 08:19:31;;;;;;;18.60;13.80;;;;;;;20.09;72.24;100775.72;4916910;28;20106;-77
2023/05/11 08:21:58;;;;;;;14.60;11.98;;;;;;;20.04;72.10;100772.09;4915919;28;20067;-78
2023/05/11 08:24:25;;;;;;;15.15;11.80;;;;;;;20.05;71.84;100782.50;4910380;28;20177;-78
2023/05/11 08:26:51;;;;;;;15.98;12.40;;;;;;;20.06;72.54;100781.47;4914483;28;20055;-79
2023/05/11 08:29:18;;;;;;;17.02;11.88;;;;;;;20.39;71.02;100775.13;4916559;28;20040;-79
2023/05/11 08:31:44;;;;;;;19.13;12.85;;;;;;;19.60;71.60;100779.06;4912648;28;20055;-78
2023/05/11 08:34:12;;;;;;;18.45;13.88;;;;;;;18.41;74.53;100786.44;4921681;28;20112;-78
2023/05/11 08:36:39;;;;;;;17.83;13.77;;;;;;;18.05;76.43;100787.59;4921943;29;20056;-78
2023/05/11 08:39:06;;;;;;;20.60;14.23;;;;;;;17.77;79.10;100800.16;4923139;29;20584;-78
2023/05/11 08:41:32;;;;;;;19.92;13.90;;;;;;;17.43;79.27;100788.63;4921082;28;20135;-78
2023/05/11 08:44:00;;;;;;;19.48;13.40;;;;;;;17.72;79.68;100792.00;4922485;29;20127;-77
2023/05/11 08:46:30;;;;;;;19.83;14.90;;;;;;;17.61;79.48;100792.53;4921004;28;20138;-77
2023/05/11 08:48:58;;;;;;;19.70;15.82;;;;;;;17.91;79.59;100791.25;4921896;29;20075;-78
2023/05/11 08:51:27;;;;;;;17.67;13.25;;;;;;;18.09;78.25;100799.41;4924699;28;20499;-78
2023/05/11 08:53:56;;;;;;;16.98;13.38;;;;;;;18.26;77.69;100788.44;4925036;29;20099;-78
2023/05/11 08:56:26;;;;;;;18.42;14.60;;;;;;;17.92;78.97;100790.25;4926275;28;20114;-79
2023/05/11 08:58:55;;;;;;;20.52;15.13;;;;;;;17.39;79.23;100786.56;4929827;29;20045;-78
2023/05/11 09:01:23;;;;;;;20.27;15.50;;;;;;;17.58;80.68;100796.38;4925422;28;20051;-78
2023/05/11 09:03:50;;;;;;;21.25;16.05;;;;;;;17.51;81.45;100780.47;4916178;28;20049;-78
2023/05/11 09:06:18;;;;;;;24.55;15.57;;;;;;;17.04;81.71;100794.50;4915963;28;20086;-79
2023/05/11 09:08:46;;;;;;;22.63;14.80;;;;;;;17.11;82.35;100799.81;4917877;28;20575;-79
2023/05/11 09:11:13;;;;;;;23.83;15.38;;;;;;;17.17;82.15;100788.47;4926174;28;20134;-78
2023/05/11 09:13:40;;;;;;;23.30;14.43;;;;;;;17.10;82.74;100791.06;4929677;28;20475;-79
2023/05/11 09:16:07;;;;;;;17.70;12.90;;;;;;;16.98;82.37;100792.66;4929884;29;20103;-80
2023/05/11 09:18:34;;;;;;;18.50;12.52;;;;;;;17.16;81.91;100792.13;4931025;29;20154;-78
2023/05/11 09:21:01;;;;;;;21.95;12.35;;;;;;;17.35;80.53;100785.31;4928931;29;20139;-79
2023/05/11 09:23:28;;;;;;;21.77;14.90;;;;;;;16.93;80.95;100773.91;4928305;28;20070;-80
2023/05/11 09:25:56;;;;;;;22.70;14.55;;;;;;;16.98;81.47;100784.72;4925156;28;20112;-79
2023/05/11 09:28:25;;;;;;;24.80;17.15;;;;;;;16.94;83.33;100790.59;4926469;28;20134;-79
2023/05/11 09:30:52;;;;;;;27.85;18.23;;;;;;;17.08;83.46;100785.16;4925621;28;20055;-79
2023/05/11 09:33:22;;;;;;;25.83;17.13;;;;;;;16.95;83.18;100786.94;4919988;28;20144;-79
2023/05/11 09:35:49;;;;;;;23.45;14.80;;;;;;;17.34;82.63;100787.16;4940266;28;20062;-82
2023/05/11 09:38:18;;;;;;;27.13;15.25;;;;;;;17.09;81.16;100784.16;4917177;28;20111;-80
2023/05/11 09:40:51;;;;;;;23.67;15.35;;;;;;;17.14;81.58;100779.09;4918728;28;20079;-79
2023/05/11 09:43:22;;;;;;;28.08;17.42;;;;;;;17.21;81.63;100787.06;4915491;28;20107;-80
2023/05/11 09:45:50;;;;;;;26.65;15.80;;;;;;;17.23;81.48;100783.22;4914997;28;20142;-78
2023/05/11 09:48:31;;;;;;;24.65;15.63;;;;;;;17.10;81.36;100791.06;4908831;28;20048;-79
2023/05/11 09:51:03;;;;;;;30.85;16.65;;;;;;;17.01;81.75;100794.09;4915743;28;20082;-78
2023/05/11 09:53:39;;;;;;;25.40;16.73;;;;;;;16.96;82.81;100796.50;4914961;28;20079;-78
2023/05/11 09:56:07;;;;;;;28.48;17.00;;;;;;;17.17;82.46;100797.22;4912281;28;20112;-78
2023/05/11 09:58:49;;;;;;;38.00;20.10;;;;;;;17.01;82.29;100783.50;4923205;28;20606;-80
2023/05/11 10:01:17;;;;;;;30.38;18.95;;;;;;;16.59;83.58;100793.94;4919662;28;20052;-80
2023/05/11 10:03:53;;;;;;;31.10;20.25;;;;;;;16.68;83.96;100794.66;4919141;28;20052;-79
2023/05/11 10:06:20;;;;;;;35.13;20.85;;;;;;;16.89;83.79;100797.25;4915052;28;20078;-81
2023/05/11 10:08:47;;;;;;;32.97;20.10;;;;;;;16.74;82.88;100785.97;4911610;28;20083;-79
2023/05/11 10:11:14;;;;;;;29.10;19.75;;;;;;;16.98;82.67;100794.47;4915383;28;20090;-79
2023/05/11 10:13:43;;;;;;;30.50;20.30;;;;;;;17.14;82.10;100789.69;4916896;28;20094;-79
2023/05/11 10:16:14;;;;;;;29.75;20.30;;;;;;;17.17;82.68;100791.94;4915739;28;20059;-80
2023/05/11 10:18:42;;;;;;;30.70;19.80;;;;;;;17.11;81.90;100778.66;4920809;28;20056;-80
2023/05/11 10:21:11;;;;;;;33.58;21.00;;;;;;;17.30;82.83;100785.09;4916490;28;20116;-79
2023/05/11 10:23:38;;;;;;;31.95;19.95;;;;;;;17.54;82.22;100769.50;4917969;28;20067;-79
2023/05/11 10:26:05;;;;;;;34.60;22.17;;;;;;;17.49;81.60;100774.56;4917117;28;20455;-79
2023/05/11 10:28:31;;;;;;;37.53;21.83;;;;;;;17.47;81.06;100773.16;4915499;28;20048;-79
2023/05/11 10:30:59;;;;;;;33.58;21.80;;;;;;;17.52;80.62;100774.19;4931592;28;20059;-79
2023/05/11 10:33:28;;;;;;;33.95;21.88;;;;;;;17.70;80.63;100778.16;4912889;28;20754;-79
2023/05/11 10:35:56;;;;;;;31.73;20.13;;;;;;;17.30;81.24;100772.69;4935635;28;20082;-78
2023/05/11 10:38:24;;;;;;;31.15;20.75;;;;;;;17.61;79.66;100766.06;4917541;28;20052;-79
2023/05/11 10:40:56;;;;;;;32.78;21.05;;;;;;;17.50;79.43;100768.28;4911522;28;20095;-79
2023/05/11 10:43:50;;;;;;;33.08;22.60;;;;;;;17.56;79.67;100769.31;4912736;28;20112;-79
2023/05/11 10:46:35;;;;;;;26.70;19.02;;;;;;;17.76;78.44;100777.34;4912743;28;20518;-79
2023/05/11 10:49:33;;;;;;;36.55;19.13;;;;;;;18.41;76.72;100771.34;4917606;28;20131;-78
2023/05/11 10:52:41;;;;;;;30.85;19.15;;;;;;;18.43;75.53;100773.81;4915627;28;20044;-79
2023/05/11 10:55:13;;;;;;;31.00;19.27;;;;;;;18.62;75.65;100761.56;4907562;28;20477;-79
2023/05/11 10:58:06;;;;;;;34.92;21.10;;;;;;;18.69;75.48;100765.84;4918916;28;20079;-79
2023/05/11 11:01:20;;;;;;;44.05;23.23;;;;;;;17.85;77.86;100773.53;4928841;28;20071;-78
2023/05/11 11:03:58;;;;;;;41.95;21.92;;;;;;;17.89;78.60;100769.47;4918867;28;20052;-79
2023/05/11 11:06:27;;;;;;;37.42;23.77;;;;;;;18.24;78.16;100770.94;4919241;28;20052;-80
2023/05/11 11:08:58;;;;;;;36.58;22.25;;;;;;;18.38;78.46;100777.06;4920711;28;20570;-79
2023/05/11 11:11:32;;;;;;;35.15;21.33;;;;;;;18.47;77.27;100767.03;4919451;28;20044;-78